createdAt,value
2019-05-03T00:02:27.165Z,8.13
2019-05-03T00:05:13.851Z,8.19
2019-05-03T00:07:42.563Z,8.22
2019-05-03T00:10:12.834Z,8.19
2019-05-03T00:12:42.149Z,8.18
2019-05-03T00:15:14.108Z,8.19
2019-05-03T00:17:42.715Z,8.20
2019-05-03T00:20:11.723Z,8.20
2019-05-03T00:22:41.911Z,8.19
2019-05-03T00:25:12.750Z,8.19
2019-05-03T00:27:42.757Z,8.18
2019-05-03T00:30:12.039Z,8.19
2019-05-03T00:32:42.615Z,8.21
2019-05-03T00:35:22.591Z,8.21
2019-05-03T00:37:55.680Z,8.22
2019-05-03T00:40:30.033Z,8.22
2019-05-03T00:42:59.170Z,8.25
2019-05-03T00:45:27.783Z,8.22
2019-05-03T00:47:56.400Z,8.19
2019-05-03T00:50:25.236Z,8.18
2019-05-03T00:52:53.861Z,8.20
2019-05-03T00:55:22.493Z,8.24
2019-05-03T00:57:52.141Z,8.25
2019-05-03T01:00:21.796Z,8.26
2019-05-03T01:02:51.690Z,8.29
2019-05-03T01:05:22.500Z,8.35
2019-05-03T01:07:52.412Z,8.36
2019-05-03T01:10:22.639Z,8.37
2019-05-03T01:12:52.273Z,8.39
2019-05-03T01:15:25.868Z,8.43
2019-05-03T01:17:54.441Z,8.48
2019-05-03T01:20:22.973Z,8.47
2019-05-03T01:22:51.953Z,8.44
2019-05-03T01:25:31.544Z,8.41
2019-05-03T01:27:52.184Z,8.36
2019-05-03T01:30:22.635Z,8.34
2019-05-03T01:32:52.354Z,8.30
2019-05-03T01:35:21.905Z,8.25
2019-05-03T01:37:51.721Z,8.20
2019-05-03T01:40:22.031Z,8.13
2019-05-03T01:42:51.800Z,8.08
2019-05-03T01:45:22.637Z,7.99
2019-05-03T01:48:02.567Z,7.94
2019-05-03T01:50:49.594Z,7.91
2019-05-03T01:53:21.568Z,7.86
2019-05-03T01:55:52.806Z,7.80
2019-05-03T01:58:23.141Z,7.72
2019-05-03T02:00:54.584Z,7.66
2019-05-03T02:03:24.831Z,7.63
2019-05-03T02:05:55.116Z,7.58
2019-05-03T02:08:23.659Z,7.53
2019-05-03T02:10:52.274Z,7.47
2019-05-03T02:13:22.810Z,7.44
2019-05-03T02:15:52.755Z,7.39
2019-05-03T02:18:22.352Z,7.36
2019-05-03T02:20:52.567Z,7.31
2019-05-03T02:23:22.472Z,7.26
2019-05-03T02:25:58.410Z,7.24
2019-05-03T02:28:22.068Z,7.19
2019-05-03T02:30:53.277Z,7.12
2019-05-03T02:33:23.371Z,7.09
2019-05-03T02:35:53.299Z,7.05
2019-05-03T02:38:23.351Z,7.06
2019-05-03T02:40:53.226Z,7.05
2019-05-03T02:43:27.245Z,7.04
2019-05-03T02:46:05.814Z,7.04
2019-05-03T02:48:50.282Z,7.02
2019-05-03T02:51:18.990Z,6.98
2019-05-03T02:53:47.599Z,6.95
2019-05-03T02:56:22.151Z,6.94
2019-05-03T02:58:46.401Z,6.95
2019-05-03T03:01:16.188Z,6.91
2019-05-03T03:03:45.988Z,6.88
2019-05-03T03:06:17.465Z,6.84
2019-05-03T03:08:48.449Z,6.81
2019-05-03T03:11:18.853Z,6.80
2019-05-03T03:13:48.463Z,6.83
2019-05-03T03:16:20.328Z,6.83
2019-05-03T03:18:48.298Z,6.85
2019-05-03T03:21:18.566Z,6.82
2019-05-03T03:24:02.203Z,6.80
2019-05-03T03:26:37.979Z,6.75
2019-05-03T03:29:06.115Z,6.71
2019-05-03T03:31:49.743Z,6.68
2019-05-03T03:34:21.220Z,6.68
2019-05-03T03:37:00.876Z,6.70
2019-05-03T03:39:26.023Z,6.73
2019-05-03T03:41:56.280Z,6.73
2019-05-03T03:44:25.857Z,6.73
2019-05-03T03:46:56.322Z,6.76
2019-05-03T03:49:28.432Z,6.82
2019-05-03T03:52:00.367Z,6.85
2019-05-03T03:54:31.904Z,6.88
2019-05-03T03:57:05.013Z,6.90
2019-05-03T03:59:36.048Z,6.94
2019-05-03T04:02:05.989Z,7.00
2019-05-03T04:04:35.850Z,7.04
2019-05-03T04:07:06.564Z,7.08
2019-05-03T04:09:36.582Z,7.11
2019-05-03T04:12:06.118Z,7.18
2019-05-03T04:14:49.441Z,7.25
2019-05-03T04:17:19.697Z,7.29
2019-05-03T04:19:52.675Z,7.32
2019-05-03T04:22:21.519Z,7.35
2019-05-03T04:24:50.163Z,7.38
2019-05-03T04:27:23.273Z,7.43
2019-05-03T04:29:49.580Z,7.48
2019-05-03T04:32:18.095Z,7.55
2019-05-03T04:34:46.740Z,7.63
2019-05-03T04:37:16.312Z,7.73
2019-05-03T04:39:47.711Z,7.82
2019-05-03T04:42:16.813Z,7.89
2019-05-03T04:44:47.137Z,7.95
2019-05-03T04:47:17.237Z,8.04
2019-05-03T04:49:46.395Z,8.13
2019-05-03T04:52:16.566Z,8.24
2019-05-03T04:54:49.683Z,8.34
2019-05-03T04:57:35.164Z,8.43
2019-05-03T04:59:48.621Z,8.48
2019-05-03T05:02:17.245Z,8.54
2019-05-03T05:04:46.505Z,8.63
2019-05-03T05:07:17.616Z,8.75
2019-05-03T05:09:46.118Z,8.92
2019-05-03T05:12:16.177Z,9.08
2019-05-03T05:14:45.865Z,9.19
2019-05-03T05:17:16.533Z,9.31
2019-05-03T05:19:49.989Z,9.44
2019-05-03T05:22:24.710Z,9.60
2019-05-03T05:24:55.212Z,9.73
2019-05-03T05:27:25.698Z,9.86
2019-05-03T05:29:55.391Z,9.98
2019-05-03T05:32:24.785Z,10.09
2019-05-03T05:34:54.940Z,10.23
2019-05-03T05:37:25.018Z,10.37
2019-05-03T05:39:57.136Z,10.52
2019-05-03T05:42:25.683Z,10.66
2019-05-03T05:44:55.707Z,10.83
2019-05-03T05:47:38.003Z,10.93
2019-05-03T05:50:15.026Z,11.11
2019-05-03T05:52:44.836Z,11.27
2019-05-03T05:55:21.977Z,11.39
2019-05-03T05:58:02.995Z,11.55
2019-05-03T06:00:33.100Z,11.68
2019-05-03T06:03:01.710Z,11.77
2019-05-03T06:05:30.337Z,11.90
2019-05-03T06:08:04.847Z,12.01
2019-05-03T06:10:35.371Z,12.10
2019-05-03T06:13:08.500Z,12.19
2019-05-03T06:15:38.689Z,12.27
2019-05-03T06:18:08.966Z,12.32
2019-05-03T06:20:39.147Z,12.36
2019-05-03T06:23:09.370Z,12.40
2019-05-03T06:25:39.517Z,12.41
2019-05-03T06:28:18.274Z,12.41
2019-05-03T06:30:45.421Z,12.38
2019-05-03T06:33:15.482Z,12.35
2019-05-03T06:35:44.589Z,12.33
2019-05-03T06:38:15.128Z,12.33
2019-05-03T06:40:44.682Z,12.24
2019-05-03T06:43:15.612Z,12.23
2019-05-03T06:45:46.691Z,12.24
2019-05-03T06:48:17.279Z,12.28
2019-05-03T06:50:45.473Z,12.30
2019-05-03T06:53:15.552Z,12.30
2019-05-03T06:55:48.241Z,12.39
2019-05-03T06:58:16.512Z,12.49
2019-05-03T07:00:46.661Z,12.58
2019-05-03T07:03:28.750Z,12.66
2019-05-03T07:06:17.338Z,12.70
2019-05-03T07:08:47.689Z,12.78
2019-05-03T07:11:16.358Z,12.88
2019-05-03T07:13:45.074Z,12.99
2019-05-03T07:16:14.958Z,13.07
2019-05-03T07:18:45.489Z,13.11
2019-05-03T07:21:15.235Z,13.14
2019-05-03T07:23:45.072Z,13.15
2019-05-03T07:26:15.078Z,13.14
2019-05-03T07:28:47.806Z,13.10
2019-05-03T07:31:15.090Z,13.13
2019-05-03T07:33:44.625Z,13.19
2019-05-03T07:36:15.228Z,13.23
2019-05-03T07:38:45.364Z,13.26
2019-05-03T07:41:14.958Z,13.34
2019-05-03T07:43:45.116Z,13.36
2019-05-03T07:46:14.702Z,13.39
2019-05-03T07:48:45.565Z,13.42
2019-05-03T07:51:14.430Z,13.46
2019-05-03T07:53:45.128Z,13.49
2019-05-03T07:56:15.853Z,13.53
2019-05-03T07:58:59.303Z,13.58
2019-05-03T08:01:18.180Z,13.63
2019-05-03T08:03:46.928Z,13.63
2019-05-03T08:06:15.430Z,13.60
2019-05-03T08:08:45.413Z,13.53
2019-05-03T08:11:14.596Z,13.47
2019-05-03T08:13:44.679Z,13.40
2019-05-03T08:16:15.937Z,13.29
2019-05-03T08:18:45.840Z,13.23
2019-05-03T08:21:15.010Z,13.12
2019-05-03T08:23:45.287Z,13.05
2019-05-03T08:26:15.289Z,12.96
2019-05-03T08:28:44.541Z,12.91
2019-05-03T08:31:23.779Z,12.86
2019-05-03T08:33:58.805Z,12.87
2019-05-03T08:36:27.485Z,12.89
2019-05-03T08:38:56.478Z,12.89
2019-05-03T08:41:26.829Z,12.93
2019-05-03T08:43:55.455Z,12.93
2019-05-03T08:46:25.352Z,13.01
2019-05-03T08:48:54.845Z,13.13
2019-05-03T08:51:24.974Z,13.31
2019-05-03T08:53:55.998Z,13.43
2019-05-03T08:56:24.690Z,13.63
2019-05-03T08:58:55.306Z,13.75
2019-05-03T09:01:25.130Z,13.71
2019-05-03T09:03:55.788Z,13.72
2019-05-03T09:06:24.890Z,13.71
2019-05-03T09:08:56.869Z,13.84
2019-05-03T09:11:31.859Z,13.68
2019-05-03T09:13:56.081Z,13.79
2019-05-03T09:16:25.128Z,13.92
2019-05-03T09:18:54.889Z,13.77
2019-05-03T09:21:25.508Z,13.80
2019-05-03T09:23:55.539Z,13.79
2019-05-03T09:26:28.990Z,13.84
2019-05-03T09:28:55.603Z,13.78
2019-05-03T09:31:25.106Z,13.76
2019-05-03T09:33:54.807Z,13.63
2019-05-03T09:36:25.315Z,13.47
2019-05-03T09:38:54.969Z,13.39
2019-05-03T09:41:25.570Z,13.33
2019-05-03T09:43:55.440Z,13.18
2019-05-03T09:46:26.526Z,13.11
2019-05-03T09:49:03.545Z,12.94
2019-05-03T09:51:25.656Z,12.77
2019-05-03T09:53:55.943Z,12.50
2019-05-03T09:56:52.844Z,12.38
2019-05-03T09:59:14.766Z,12.30
2019-05-03T10:01:45.448Z,12.21
2019-05-03T10:04:13.415Z,12.11
2019-05-03T10:06:42.072Z,11.86
2019-05-03T10:09:10.691Z,11.70
2019-05-03T10:11:39.437Z,11.66
2019-05-03T10:14:15.417Z,11.67
2019-05-03T10:16:57.390Z,11.63
2019-05-03T10:19:36.680Z,11.41
2019-05-03T10:21:56.724Z,11.16
2019-05-03T10:24:25.497Z,11.04
2019-05-03T10:26:55.227Z,10.95
2019-05-03T10:29:25.105Z,10.95
2019-05-03T10:31:58.368Z,10.95
2019-05-03T10:34:27.060Z,10.92
2019-05-03T10:36:56.485Z,10.84
2019-05-03T10:39:26.253Z,10.82
2019-05-03T10:41:55.191Z,10.80
2019-05-03T10:44:24.583Z,10.80
2019-05-03T10:46:55.765Z,10.82
2019-05-03T10:49:24.690Z,10.76
2019-05-03T10:51:57.616Z,10.77
2019-05-03T10:54:26.235Z,10.75
2019-05-03T10:56:59.138Z,10.80
2019-05-03T10:59:27.666Z,10.70
2019-05-03T11:01:57.917Z,10.65
2019-05-03T11:04:27.545Z,10.64
2019-05-03T11:06:56.138Z,10.61
2019-05-03T11:09:25.818Z,10.59
2019-05-03T11:11:55.490Z,10.56
2019-05-03T11:14:25.398Z,10.54
2019-05-03T11:16:55.226Z,10.38
2019-05-03T11:19:25.455Z,10.34
2019-05-03T11:21:54.821Z,10.37
2019-05-03T11:24:27.218Z,10.39
2019-05-03T11:26:55.995Z,10.36
2019-05-03T11:29:24.840Z,10.32
2019-05-03T11:32:01.139Z,10.27
2019-05-03T11:34:37.473Z,10.24
2019-05-03T11:37:07.766Z,10.23
2019-05-03T11:39:36.303Z,10.16
2019-05-03T11:42:05.184Z,10.07
2019-05-03T11:44:39.200Z,9.96
2019-05-03T11:47:09.572Z,9.90
2019-05-03T11:49:38.151Z,9.89
2019-05-03T11:52:07.485Z,9.87
2019-05-03T11:54:36.209Z,9.83
2019-05-03T11:57:06.485Z,9.85
2019-05-03T11:59:35.137Z,9.85
2019-05-03T12:02:20.685Z,9.85
2019-05-03T12:04:49.331Z,9.87
2019-05-03T12:07:39.570Z,9.88
2019-05-03T12:10:17.609Z,9.92
2019-05-03T12:12:40.139Z,9.91
2019-05-03T12:15:09.072Z,9.90
2019-05-03T12:17:51.860Z,9.92
2019-05-03T12:20:17.266Z,9.93
2019-05-03T12:22:46.589Z,9.98
2019-05-03T12:25:16.719Z,10.08
2019-05-03T12:27:46.592Z,10.08
2019-05-03T12:30:15.516Z,10.09
2019-05-03T12:32:44.183Z,10.15
2019-05-03T12:35:15.174Z,10.18
2019-05-03T12:37:43.188Z,10.21
2019-05-03T12:40:14.852Z,10.24
2019-05-03T12:42:45.293Z,10.30
2019-05-03T12:45:15.259Z,10.34
2019-05-03T12:47:45.358Z,10.31
2019-05-03T12:50:15.629Z,10.29
2019-05-03T12:52:50.381Z,10.30
2019-05-03T12:55:15.349Z,10.38
2019-05-03T12:57:45.749Z,10.44
2019-05-03T13:00:27.620Z,10.43
2019-05-03T13:02:57.833Z,10.42
2019-05-03T13:05:26.551Z,10.44
2019-05-03T13:08:15.149Z,10.45
2019-05-03T13:10:45.207Z,10.47
2019-05-03T13:13:14.621Z,10.49
2019-05-03T13:15:43.373Z,10.53
2019-05-03T13:18:15.658Z,10.57
2019-05-03T13:20:45.320Z,10.60
2019-05-03T13:23:14.209Z,10.63
2019-05-03T13:25:44.626Z,10.63
2019-05-03T13:28:15.177Z,10.61
2019-05-03T13:30:45.127Z,10.62
2019-05-03T13:33:15.141Z,10.63
2019-05-03T13:35:44.618Z,10.63
2019-05-03T13:38:13.659Z,10.64
2019-05-03T13:40:42.270Z,10.63
2019-05-03T13:43:10.907Z,10.59
2019-05-03T13:45:39.384Z,10.54
2019-05-03T13:48:08.014Z,10.53
2019-05-03T13:50:36.545Z,10.50
2019-05-03T13:53:05.513Z,10.51
2019-05-03T13:55:35.300Z,10.55
2019-05-03T13:58:05.202Z,10.57
2019-05-03T14:00:35.254Z,10.60
2019-05-03T14:03:04.562Z,10.62
2019-05-03T14:05:35.211Z,10.66
2019-05-03T14:08:05.082Z,10.69
2019-05-03T14:10:35.971Z,10.71
2019-05-03T14:13:05.591Z,10.72
2019-05-03T14:15:34.933Z,10.73
2019-05-03T14:18:05.982Z,10.73
2019-05-03T14:20:50.889Z,10.71
2019-05-03T14:23:19.629Z,10.70
2019-05-03T14:25:49.839Z,10.73
2019-05-03T14:28:18.747Z,10.69
2019-05-03T14:30:47.372Z,10.65
2019-05-03T14:33:16.260Z,10.69
2019-05-03T14:35:45.286Z,10.75
2019-05-03T14:38:15.124Z,10.80
2019-05-03T14:40:44.861Z,10.87
2019-05-03T14:43:15.433Z,10.94
2019-05-03T14:45:44.297Z,10.95
2019-05-03T14:48:15.076Z,11.00
2019-05-03T14:50:45.413Z,10.97
2019-05-03T14:53:14.771Z,11.01
2019-05-03T14:55:45.394Z,11.04
2019-05-03T14:58:21.611Z,11.09
2019-05-03T15:00:51.875Z,11.17
2019-05-03T15:03:22.074Z,11.28
2019-05-03T15:05:50.685Z,11.34
2019-05-03T15:08:19.301Z,11.40
2019-05-03T15:10:50.956Z,11.46
2019-05-03T15:13:19.497Z,11.53
2019-05-03T15:15:48.047Z,11.53
2019-05-03T15:18:16.644Z,11.58
2019-05-03T15:20:45.456Z,11.60
2019-05-03T15:23:14.765Z,11.64
2019-05-03T15:25:45.243Z,11.63
2019-05-03T15:28:13.809Z,11.57
2019-05-03T15:30:44.394Z,11.50
2019-05-03T15:33:12.624Z,11.39
2019-05-03T15:35:44.553Z,10.98
2019-05-03T15:38:11.672Z,10.72
2019-05-03T15:40:40.770Z,10.47
2019-05-03T15:43:14.909Z,10.32
2019-05-03T15:45:58.250Z,10.04
2019-05-03T15:48:28.343Z,9.79
2019-05-03T15:50:56.941Z,9.70
2019-05-03T15:53:25.472Z,9.50
2019-05-03T15:55:55.102Z,9.40
2019-05-03T15:58:24.887Z,9.35
2019-05-03T16:00:55.471Z,9.29
2019-05-03T16:03:25.295Z,9.27
2019-05-03T16:05:55.682Z,9.23
2019-05-03T16:08:25.387Z,9.17
2019-05-03T16:10:54.903Z,9.18
2019-05-03T16:13:25.248Z,9.14
2019-05-03T16:15:55.287Z,9.07
2019-05-03T16:18:24.674Z,9.04
2019-05-03T16:20:54.605Z,8.97
2019-05-03T16:23:25.072Z,8.95
2019-05-03T16:25:54.446Z,8.91
2019-05-03T16:28:24.931Z,8.82
2019-05-03T16:30:55.651Z,8.81
2019-05-03T16:33:27.835Z,8.79
2019-05-03T16:35:54.950Z,8.72
2019-05-03T16:38:24.854Z,8.68
2019-05-03T16:40:54.513Z,8.66
2019-05-03T16:43:25.506Z,8.65
2019-05-03T16:45:55.178Z,8.60
2019-05-03T16:48:24.678Z,8.54
2019-05-03T16:50:53.708Z,8.57
2019-05-03T16:53:22.391Z,8.59
2019-05-03T16:55:50.922Z,8.59
2019-05-03T16:58:19.404Z,8.63
2019-05-03T17:00:48.089Z,8.64
2019-05-03T17:03:18.197Z,8.70
2019-05-03T17:06:05.075Z,8.75
2019-05-03T17:08:35.263Z,8.77
2019-05-03T17:11:05.860Z,8.81
2019-05-03T17:13:34.720Z,8.83
2019-05-03T17:16:04.787Z,8.86
2019-05-03T17:18:35.306Z,8.78
2019-05-03T17:21:05.335Z,8.69
2019-05-03T17:23:35.296Z,8.70
2019-05-03T17:26:04.473Z,8.73
2019-05-03T17:28:35.355Z,8.75
2019-05-03T17:31:04.587Z,8.68
2019-05-03T17:33:34.800Z,8.68
2019-05-03T17:36:05.126Z,8.67
2019-05-03T17:38:35.168Z,8.61
2019-05-03T17:41:08.550Z,8.60
2019-05-03T17:43:38.802Z,8.61
2019-05-03T17:46:09.143Z,8.65
2019-05-03T17:48:37.751Z,8.62
2019-05-03T17:51:06.362Z,8.58
2019-05-03T17:53:39.281Z,8.56
2019-05-03T17:56:27.757Z,8.56
2019-05-03T17:58:57.925Z,8.54
2019-05-03T18:01:31.154Z,8.43
2019-05-03T18:04:10.466Z,8.39
2019-05-03T18:06:58.300Z,8.29
2019-05-03T18:09:28.571Z,8.22
2019-05-03T18:11:58.815Z,8.18
2019-05-03T18:14:27.366Z,8.19
2019-05-03T18:16:55.938Z,8.18
2019-05-03T18:19:24.508Z,8.15
2019-05-03T18:21:55.320Z,8.14
2019-05-03T18:24:24.758Z,8.15
2019-05-03T18:26:53.720Z,8.15
2019-05-03T18:29:22.326Z,8.15
2019-05-03T18:31:50.943Z,8.18
2019-05-03T18:34:22.398Z,8.18
2019-05-03T18:36:49.876Z,8.14
2019-05-03T18:39:18.484Z,8.07
2019-05-03T18:41:47.163Z,8.05
2019-05-03T18:44:26.318Z,8.01
2019-05-03T18:46:56.492Z,8.00
2019-05-03T18:49:25.103Z,7.98
2019-05-03T18:51:55.377Z,7.97
2019-05-03T18:54:24.648Z,7.97
2019-05-03T18:56:55.558Z,7.92
2019-05-03T18:59:23.824Z,7.93
2019-05-03T19:01:52.561Z,7.90
2019-05-03T19:04:37.389Z,7.89
2019-05-03T19:07:08.494Z,7.85
2019-05-03T19:09:44.457Z,7.81
2019-05-03T19:12:17.419Z,7.78
2019-05-03T19:14:46.570Z,7.76
2019-05-03T19:17:24.753Z,7.75
2019-05-03T19:19:57.759Z,7.70
2019-05-03T19:22:26.441Z,7.67
2019-05-03T19:24:55.050Z,7.64
2019-05-03T19:27:25.142Z,7.66
2019-05-03T19:29:55.536Z,7.67
2019-05-03T19:32:28.330Z,7.66
2019-05-03T19:34:56.057Z,7.63
2019-05-03T19:37:25.210Z,7.64
2019-05-03T19:39:55.218Z,7.65
2019-05-03T19:42:24.841Z,7.65
2019-05-03T19:44:56.018Z,7.68
2019-05-03T19:47:25.149Z,7.69
2019-05-03T19:49:54.820Z,7.68
2019-05-03T19:52:25.524Z,7.70
2019-05-03T19:54:55.418Z,7.73
2019-05-03T19:57:26.025Z,7.72
2019-05-03T19:59:56.791Z,7.72
2019-05-03T20:02:45.413Z,7.67
2019-05-03T20:05:16.035Z,7.65
2019-05-03T20:08:05.029Z,7.67
2019-05-03T20:10:35.155Z,7.66
2019-05-03T20:13:04.681Z,7.69
2019-05-03T20:15:33.584Z,7.67
2019-05-03T20:18:02.191Z,7.64
2019-05-03T20:20:30.761Z,7.62
2019-05-03T20:22:59.238Z,7.65
2019-05-03T20:25:27.841Z,7.65
2019-05-03T20:27:58.098Z,7.64
2019-05-03T20:30:26.629Z,7.62
2019-05-03T20:32:55.620Z,7.66
2019-05-03T20:35:25.195Z,7.70
2019-05-03T20:37:55.324Z,7.71
2019-05-03T20:40:25.546Z,7.72
2019-05-03T20:43:01.761Z,7.72
2019-05-03T20:45:44.561Z,7.74
2019-05-03T20:48:15.176Z,7.76
2019-05-03T20:50:44.744Z,7.78
2019-05-03T20:53:13.855Z,7.80
2019-05-03T20:55:42.485Z,7.83
2019-05-03T20:58:11.464Z,7.85
2019-05-03T21:00:40.538Z,7.84
2019-05-03T21:03:09.004Z,7.86
2019-05-03T21:05:37.675Z,7.87
2019-05-03T21:08:08.064Z,7.88
2019-05-03T21:10:37.410Z,7.88
2019-05-03T21:13:08.760Z,7.90
2019-05-03T21:15:47.353Z,7.90
2019-05-03T21:18:20.216Z,7.90
2019-05-03T21:20:55.502Z,7.90
2019-05-03T21:23:25.246Z,7.86
2019-05-03T21:26:13.413Z,7.79
2019-05-03T21:28:40.913Z,7.76
2019-05-03T21:31:09.520Z,7.72
2019-05-03T21:33:38.168Z,7.73
2019-05-03T21:36:06.784Z,7.74
2019-05-03T21:38:35.711Z,7.74
2019-05-03T21:41:05.382Z,7.75
2019-05-03T21:43:34.765Z,7.75
2019-05-03T21:46:11.384Z,7.77
2019-05-03T21:48:41.539Z,7.78
2019-05-03T21:51:10.180Z,7.73
2019-05-03T21:53:38.714Z,7.70
2019-05-03T21:56:07.356Z,7.67
2019-05-03T21:58:35.992Z,7.68
2019-05-03T22:01:06.251Z,7.67
2019-05-03T22:03:35.580Z,7.66
2019-05-03T22:06:04.288Z,7.65
2019-05-03T22:08:34.939Z,7.65
2019-05-03T22:11:05.247Z,7.62
2019-05-03T22:13:34.943Z,7.61
2019-05-03T22:16:05.380Z,7.60
2019-05-03T22:18:35.477Z,7.59
2019-05-03T22:21:11.530Z,7.59
2019-05-03T22:23:57.821Z,7.59
2019-05-03T22:26:45.263Z,7.58
2019-05-03T22:29:17.236Z,7.58
2019-05-03T22:31:45.332Z,7.57
2019-05-03T22:34:15.120Z,7.55
2019-05-03T22:36:44.432Z,7.51
2019-05-03T22:39:15.778Z,7.48
2019-05-03T22:41:43.654Z,7.45
2019-05-03T22:44:12.189Z,7.39
2019-05-03T22:46:40.997Z,7.35
2019-05-03T22:49:09.608Z,7.32
2019-05-03T22:51:38.144Z,7.27
2019-05-03T22:54:06.709Z,7.23
2019-05-03T22:56:35.673Z,7.19
2019-05-03T22:59:05.475Z,7.15
2019-05-03T23:01:35.181Z,7.09
2019-05-03T23:04:05.611Z,7.04
2019-05-03T23:06:34.345Z,6.98
2019-05-03T23:09:05.128Z,6.90
2019-05-03T23:11:35.311Z,6.84
2019-05-03T23:14:04.971Z,6.78
2019-05-03T23:16:35.655Z,6.72
2019-05-03T23:19:05.546Z,6.65
2019-05-03T23:21:38.790Z,6.61
2019-05-03T23:24:07.401Z,6.58
2019-05-03T23:26:36.038Z,6.55
2019-05-03T23:29:04.711Z,6.50
2019-05-03T23:31:34.375Z,6.44
2019-05-03T23:34:04.976Z,6.37
2019-05-03T23:36:36.283Z,6.31
2019-05-03T23:39:05.362Z,6.25
2019-05-03T23:41:35.345Z,6.21
2019-05-03T23:44:04.747Z,6.15
2019-05-03T23:46:35.200Z,6.05
2019-05-03T23:49:03.973Z,5.98
2019-05-03T23:51:44.412Z,5.93
2019-05-03T23:54:14.847Z,5.90
2019-05-03T23:56:45.634Z,5.90
2019-05-03T23:59:14.863Z,5.91
